RKTN/TAE METAR and TAF weather

Enter ICAO airport designator
Station Type Date Time Source
RKTN METAR 2021/01/22 05:00 UTC NOAA

RKTN 220500Z 20002KT 3200 BR SCT005 BKN015 OVC120 10/07 Q1017


Station Type Date Time Source
RKTN Decoded METAR 2021/01/22 05:00 UTC NOAA

Taegu Ab, Korea, South (RKTN) 35-54N 128-39E 37M
Jan 22, 2021 - 12:00 AM EST / 2021.01.22 0500 UTC
Wind: from the SSW (200 degrees) at 2 MPH (2 KT):0
Visibility: 1 mile(s):0
Sky conditions: overcast
Weather: mist
Temperature: 50 F (10 C)
Dew Point: 44 F (7 C)
Relative Humidity: 81%
Pressure (altimeter): 30.03 in. Hg (1017 hPa)
ob: RKTN 220500Z 20002KT 3200 BR SCT005 BKN015 OVC120 10/07 Q1017
cycle: 5

Station Type Date Time Source
RKTN TAF 2021/01/22 06:15 UTC NOAA

TAF TAF RKTN 220500Z 2206/2312 30006KT 4800 BR BKN015 BKN030 TN05/2221Z TX09/2306Z
BECMG 2209/2210 BKN030 BKN120

Example: see airport list